Estación Meteorológica Peña el Pijo (Robertgarden) [ 07/21/18 15:42:41 CEST ]

Fecha Hora Presion(HPa) Temp (°C) Humedad % Rocio (°C) Viento ( m/s) Direccion Lluvia 1Hora(mm) Lluvia 24H(mm) LLuvia Total(mm)
2017-Nov-22 01:01:39 1010.500 0.9 63 -5.4         1468.01
2017-Nov-22 02:04:09 1009.600 0.9 64 -5.2         1468.01
2017-Nov-22 03:01:36 1009.300 0.7 65 -5.2         1468.01
2017-Nov-22 04:01:49 1009.000 0.3 66 -5.3         1468.01
2017-Nov-22 05:01:54 1008.600 -0.7 67 -6.1         1468.01
2017-Nov-22 06:01:38 1008.000 -1.0 69 -6.0         1468.01
2017-Nov-22 07:01:57 1008.000 -1.1 70 -5.9         1468.01
2017-Nov-22 08:01:42 1007.900 -1.5 70 -6.2         1468.01
2017-Nov-22 09:02:14 1008.200 -0.1 71 -4.7         1468.01
2017-Nov-22 10:02:01 1007.900 8.1 57 0.0         1468.01
2017-Nov-22 11:01:44 1007.700 14.9 37 0.2         1468.01
2017-Nov-22 12:01:57 1007.200 17.2 31 -0.1         1468.01
2017-Nov-22 13:01:46 1006.500 18.7 26 -1.4         1468.01
2017-Nov-22 14:01:59 1005.700 20.3 22 -2.3         1468.01
2017-Nov-22 15:01:50 1005.600 20.0 22 -2.5         1468.01
2017-Nov-22 16:01:49 1005.700 19.0 23 -2.8         1468.01
2017-Nov-22 17:02:00 1005.700 15.9 26 -3.8         1468.01
2017-Nov-22 18:01:53 1006.000 11.6 32 -4.6         1468.01
2017-Nov-22 19:01:48 1006.400 7.8 38 -5.7         1468.01
2017-Nov-22 20:01:55 1006.800 5.7 44 -5.7         1468.01
2017-Nov-22 21:01:50 1006.900 3.8 48 -6.3         1468.01
2017-Nov-22 22:01:42 1007.400 2.7 51 -6.4         1468.01
2017-Nov-22 23:01:52 1007.700 2.9 50 -6.5         1468.01

Temperatura Máxima:20°    Temperatura Mínima:-1°
Presión Máxima:1010.500 Hpa    Presión Mínima:1005.600 Hpa


Volver